Time;durP1;ratioP1;P1;durP2;ratioP2;P2;SDS_P1;SDS_P2;PMS_P1;PMS_P2;Temp;Humidity;BMP_temperature;BMP_pressure;BME280_temperature;BME280_humidity;BME280_pressure;Samples;Min_cycle;Max_cycle;Signal;HPM_P1;HPM_P2
2023/09/24 00:02:10;;;;;;;9.73;7.37;;;6.80;99.90;;;;;;5075078;28;20589;-69
2023/09/24 00:04:37;;;;;;;9.13;7.03;;;6.70;99.90;;;;;;5073677;28;20287;-69
2023/09/24 00:07:04;;;;;;;7.40;6.17;;;6.70;99.90;;;;;;5074528;28;20599;-69
2023/09/24 00:09:31;;;;;;;9.60;6.93;;;6.80;99.90;;;;;;5074852;28;20575;-69
2023/09/24 00:11:59;;;;;;;8.57;6.60;;;6.60;99.90;;;;;;5074984;28;20197;-69
2023/09/24 00:14:26;;;;;;;8.80;6.40;;;6.50;99.90;;;;;;5074890;28;20209;-69
2023/09/24 00:16:53;;;;;;;8.97;6.03;;;6.40;99.90;;;;;;5074633;28;20735;-69
2023/09/24 00:19:19;;;;;;;7.13;6.43;;;6.40;99.90;;;;;;5074591;28;20254;-69
2023/09/24 00:21:47;;;;;;;7.07;6.37;;;6.30;99.90;;;;;;5074807;28;20252;-69
2023/09/24 00:24:17;;;;;;;7.73;6.90;;;6.30;99.90;;;;;;5074722;28;20284;-69
2023/09/24 00:26:44;;;;;;;7.77;6.53;;;6.30;99.90;;;;;;5074696;28;20197;-69
2023/09/24 00:29:12;;;;;;;9.37;6.63;;;6.50;99.90;;;;;;5074613;28;20201;-69
2023/09/24 00:31:38;;;;;;;9.67;7.27;;;6.70;99.90;;;;;;5074473;28;20201;-69
2023/09/24 00:34:05;;;;;;;8.67;7.37;;;6.50;99.90;;;;;;5074636;28;20203;-69
2023/09/24 00:36:32;;;;;;;9.53;7.40;;;6.50;99.90;;;;;;5074348;28;20233;-69
2023/09/24 00:38:59;;;;;;;7.20;6.60;;;6.50;99.90;;;;;;5074578;28;20289;-69
2023/09/24 00:41:26;;;;;;;8.10;7.30;;;6.30;99.90;;;;;;5073990;28;20595;-69
2023/09/24 00:43:53;;;;;;;8.23;7.00;;;6.20;99.90;;;;;;5074305;28;20284;-69
2023/09/24 00:46:21;;;;;;;9.33;8.33;;;6.20;99.90;;;;;;5074205;28;20219;-69
2023/09/24 00:48:50;;;;;;;9.10;8.23;;;6.30;99.90;;;;;;5074069;28;20284;-69
2023/09/24 00:51:18;;;;;;;8.40;7.53;;;6.30;99.90;;;;;;5074248;28;20301;-67
2023/09/24 00:53:46;;;;;;;8.27;7.47;;;6.20;99.90;;;;;;5073998;28;20211;-67
2023/09/24 00:56:13;;;;;;;9.73;7.80;;;6.20;99.90;;;;;;5074127;28;20198;-68
2023/09/24 00:58:41;;;;;;;10.00;8.23;;;6.20;99.90;;;;;;5073871;28;20252;-67
2023/09/24 01:01:09;;;;;;;8.70;7.33;;;6.20;99.90;;;;;;5073614;28;20246;-68
2023/09/24 01:03:40;;;;;;;8.77;7.87;;;6.10;99.90;;;;;;5073956;28;20212;-68
2023/09/24 01:06:07;;;;;;;10.00;8.00;;;6.10;99.90;;;;;;5073883;28;20197;-68
2023/09/24 01:08:34;;;;;;;9.27;7.90;;;6.00;99.90;;;;;;5073144;28;20648;-68
2023/09/24 01:11:02;;;;;;;9.50;8.40;;;6.00;99.90;;;;;;5073617;28;20251;-68
2023/09/24 01:13:38;;;;;;;8.03;7.27;;;6.00;99.90;;;;;;5073617;28;20207;-68
2023/09/24 01:16:06;;;;;;;9.53;8.33;;;6.00;99.90;;;;;;5073330;28;20235;-68
2023/09/24 01:18:34;;;;;;;10.33;8.40;;;6.00;99.90;;;;;;5073619;28;20279;-68
2023/09/24 01:21:03;;;;;;;9.30;8.03;;;6.00;99.90;;;;;;5073536;28;20703;-69
2023/09/24 01:23:37;;;;;;;10.50;8.50;;;6.10;99.90;;;;;;5073509;28;20347;-68
2023/09/24 01:26:04;;;;;;;10.17;8.47;;;6.20;99.90;;;;;;5073273;28;20288;-68
2023/09/24 01:28:31;;;;;;;8.97;8.07;;;6.20;99.90;;;;;;5073501;28;20289;-68
2023/09/24 01:30:58;;;;;;;8.43;7.63;;;6.20;99.90;;;;;;5073426;28;20197;-68
2023/09/24 01:33:25;;;;;;;8.83;7.90;;;6.10;99.90;;;;;;5073147;28;20557;-68
2023/09/24 01:35:51;;;;;;;8.63;7.77;;;6.00;99.90;;;;;;5073075;28;20652;-68
2023/09/24 01:38:19;;;;;;;8.23;7.43;;;5.90;99.90;;;;;;5073064;28;20270;-69
2023/09/24 01:40:47;;;;;;;8.13;7.33;;;5.90;99.90;;;;;;5073265;28;20232;-69
2023/09/24 01:43:14;;;;;;;10.57;7.63;;;5.80;99.90;;;;;;5072994;28;20599;-68
2023/09/24 01:45:41;;;;;;;10.57;7.77;;;5.80;99.90;;;;;;5073024;28;20660;-68
2023/09/24 01:48:08;;;;;;;9.67;7.17;;;5.80;99.90;;;;;;5073125;28;20198;-68
2023/09/24 01:50:36;;;;;;;7.57;6.77;;;5.70;99.90;;;;;;5073036;28;20205;-68
2023/09/24 01:53:05;;;;;;;11.20;6.70;;;5.70;99.90;;;;;;5073115;28;20207;-68
2023/09/24 01:55:32;;;;;;;8.30;6.90;;;5.70;99.90;;;;;;5073083;28;20193;-68
2023/09/24 01:58:00;;;;;;;7.97;7.17;;;5.70;99.90;;;;;;5073043;28;20258;-68
2023/09/24 02:00:27;;;;;;;10.50;8.23;;;5.90;99.90;;;;;;5072772;28;20679;-68
2023/09/24 02:02:59;;;;;;;9.60;8.60;;;6.00;99.90;;;;;;5073106;28;20193;-68
2023/09/24 02:05:26;;;;;;;10.50;8.93;;;6.10;99.90;;;;;;5072778;28;20197;-68
2023/09/24 02:07:53;;;;;;;10.30;9.10;;;6.10;99.90;;;;;;5072788;28;20561;-68
2023/09/24 02:10:21;;;;;;;9.40;8.40;;;6.00;99.90;;;;;;5072922;28;20207;-68
2023/09/24 02:12:48;;;;;;;10.00;8.90;;;6.00;99.90;;;;;;5072839;28;20235;-68
2023/09/24 02:15:18;;;;;;;11.70;8.07;;;5.80;99.90;;;;;;5072725;28;20201;-68
2023/09/24 02:17:47;;;;;;;8.13;7.27;;;5.60;99.90;;;;;;5072725;28;20222;-68
2023/09/24 02:20:22;;;;;;;8.20;7.27;;;5.80;99.90;;;;;;5072482;28;20203;-68
2023/09/24 02:22:49;;;;;;;7.80;6.63;;;5.80;99.90;;;;;;5072920;28;20211;-68
2023/09/24 02:25:17;;;;;;;10.00;7.60;;;5.80;99.90;;;;;;5072754;28;20196;-68
2023/09/24 02:27:44;;;;;;;13.13;9.00;;;5.80;99.90;;;;;;5074646;28;20250;-68
2023/09/24 02:30:13;;;;;;;8.30;7.10;;;5.70;99.90;;;;;;5076782;28;20197;-68
2023/09/24 02:32:42;;;;;;;7.77;7.07;;;5.70;99.90;;;;;;5076596;28;20208;-68
2023/09/24 02:35:10;;;;;;;8.23;7.30;;;5.60;99.90;;;;;;5076881;28;20192;-68
2023/09/24 02:37:37;;;;;;;8.80;7.63;;;5.60;99.90;;;;;;5076511;28;20250;-68
2023/09/24 02:40:08;;;;;;;9.03;7.07;;;5.50;99.90;;;;;;5076592;28;20320;-68
2023/09/24 02:42:35;;;;;;;8.23;7.43;;;5.40;99.90;;;;;;5076557;28;20276;-68
2023/09/24 02:45:02;;;;;;;7.90;7.10;;;5.30;99.90;;;;;;5076277;28;20879;-68
2023/09/24 02:47:28;;;;;;;8.83;7.53;;;5.30;99.90;;;;;;5076305;28;20556;-68
2023/09/24 02:49:56;;;;;;;8.93;6.50;;;5.30;99.90;;;;;;5076451;28;20675;-68
2023/09/24 02:52:23;;;;;;;7.87;7.07;;;5.30;99.90;;;;;;5076431;28;20197;-68
2023/09/24 02:54:50;;;;;;;7.33;6.60;;;5.20;99.90;;;;;;5076581;28;20205;-68
2023/09/24 02:57:17;;;;;;;6.50;5.90;;;5.20;99.90;;;;;;5076155;28;20237;-68
2023/09/24 02:59:43;;;;;;;11.60;6.63;;;5.10;99.90;;;;;;5076037;28;20197;-68
2023/09/24 03:02:11;;;;;;;7.13;6.13;;;5.10;99.90;;;;;;5076297;28;20254;-69
2023/09/24 03:04:37;;;;;;;6.67;6.07;;;5.10;99.90;;;;;;5076479;28;20193;-68
2023/09/24 03:07:10;;;;;;;7.87;7.07;;;5.00;99.90;;;;;;5076157;28;20200;-68
2023/09/24 03:09:37;;;;;;;6.90;6.27;;;5.00;99.90;;;;;;5075997;28;20247;-68
2023/09/24 03:12:04;;;;;;;9.97;6.93;;;5.00;99.90;;;;;;5075545;28;20591;-68
2023/09/24 03:14:31;;;;;;;7.17;6.57;;;4.90;99.90;;;;;;5076079;28;20203;-68
2023/09/24 03:16:58;;;;;;;10.63;7.10;;;4.90;99.90;;;;;;5075909;28;20204;-68
2023/09/24 03:19:24;;;;;;;8.10;6.53;;;4.90;99.90;;;;;;5076019;28;20201;-69
2023/09/24 03:21:51;;;;;;;8.87;6.50;;;5.20;99.90;;;;;;5075736;28;20221;-68
2023/09/24 03:24:19;;;;;;;7.90;7.10;;;5.20;99.90;;;;;;5075652;28;20733;-69
2023/09/24 03:26:47;;;;;;;8.83;7.53;;;5.30;99.90;;;;;;5075425;28;20205;-69
2023/09/24 03:29:15;;;;;;;8.80;7.13;;;5.10;99.90;;;;;;5075776;28;20224;-69
2023/09/24 03:31:42;;;;;;;8.63;6.30;;;5.00;99.90;;;;;;5075681;28;20201;-69
2023/09/24 03:34:09;;;;;;;8.37;6.50;;;5.10;99.90;;;;;;5075623;28;20197;-69
2023/09/24 03:36:37;;;;;;;7.60;6.17;;;5.40;99.90;;;;;;5075458;28;20229;-69
2023/09/24 03:39:04;;;;;;;7.67;6.87;;;5.40;99.90;;;;;;5075190;28;20668;-69
2023/09/24 03:41:32;;;;;;;7.37;6.63;;;5.50;99.90;;;;;;5075172;28;20216;-69
2023/09/24 03:43:59;;;;;;;6.53;5.93;;;5.30;99.90;;;;;;5075781;28;20201;-69
2023/09/24 03:46:27;;;;;;;6.87;6.10;;;5.10;99.90;;;;;;5075403;28;20259;-69
2023/09/24 03:48:54;;;;;;;7.03;6.30;;;5.10;99.90;;;;;;5075385;28;20280;-69
2023/09/24 03:51:21;;;;;;;6.87;6.27;;;5.00;99.90;;;;;;5075509;28;20292;-69
2023/09/24 03:53:47;;;;;;;7.73;6.93;;;5.00;99.90;;;;;;5075234;28;20205;-69
2023/09/24 03:56:14;;;;;;;7.53;6.73;;;5.00;99.90;;;;;;5075187;28;20238;-69
2023/09/24 03:58:42;;;;;;;7.07;6.37;;;5.10;99.90;;;;;;5074957;28;20656;-69
2023/09/24 04:01:09;;;;;;;7.73;6.93;;;5.00;99.90;;;;;;5075165;28;20221;-69
2023/09/24 04:03:36;;;;;;;7.90;6.90;;;4.90;99.90;;;;;;5075177;28;20318;-69
2023/09/24 04:06:09;;;;;;;7.23;6.53;;;4.80;99.90;;;;;;5075019;28;20200;-69
2023/09/24 04:08:35;;;;;;;7.57;6.57;;;4.80;99.90;;;;;;5074879;28;20201;-69
2023/09/24 04:11:02;;;;;;;7.43;6.73;;;4.80;99.90;;;;;;5074827;28;20641;-69
2023/09/24 04:13:29;;;;;;;8.73;7.03;;;4.90;99.90;;;;;;5074726;28;20197;-69
2023/09/24 04:15:57;;;;;;;8.23;7.30;;;4.80;99.90;;;;;;5074775;28;20200;-69
2023/09/24 04:18:24;;;;;;;9.70;7.33;;;5.00;99.90;;;;;;5074993;28;20197;-69
2023/09/24 04:20:52;;;;;;;7.40;6.57;;;5.10;99.90;;;;;;5074562;28;20193;-69
2023/09/24 04:23:18;;;;;;;8.37;7.43;;;5.00;99.90;;;;;;5074792;28;20203;-69
2023/09/24 04:25:45;;;;;;;8.53;7.43;;;4.80;99.90;;;;;;5074775;28;20197;-69
2023/09/24 04:28:13;;;;;;;8.33;7.33;;;4.70;99.90;;;;;;5074707;28;20197;-69
2023/09/24 04:30:40;;;;;;;10.00;9.00;;;4.70;99.90;;;;;;5074561;28;20197;-69
2023/09/24 04:33:10;;;;;;;10.00;8.23;;;4.60;99.90;;;;;;5074200;28;20274;-69
2023/09/24 04:35:36;;;;;;;10.47;9.47;;;4.60;99.90;;;;;;5074336;28;20657;-69
2023/09/24 04:38:03;;;;;;;8.33;7.53;;;4.60;99.90;;;;;;5074141;28;20236;-69
2023/09/24 04:40:33;;;;;;;8.40;7.60;;;4.60;99.90;;;;;;5074255;28;20660;-69
2023/09/24 04:43:00;;;;;;;8.50;7.70;;;4.50;99.90;;;;;;5074333;28;20275;-69
2023/09/24 04:45:27;;;;;;;9.90;7.10;;;4.50;99.90;;;;;;5074237;28;20192;-69
2023/09/24 04:47:53;;;;;;;9.87;6.90;;;4.60;99.90;;;;;;5074024;28;20205;-69
2023/09/24 04:50:23;;;;;;;8.93;6.70;;;4.80;99.90;;;;;;5073404;28;20204;-69
2023/09/24 04:52:54;;;;;;;8.60;7.67;;;4.80;99.90;;;;;;5074155;28;20209;-69
2023/09/24 04:55:21;;;;;;;10.13;6.93;;;4.70;99.90;;;;;;5074394;28;20203;-69
2023/09/24 04:57:48;;;;;;;8.73;7.03;;;4.70;99.90;;;;;;5073943;28;20223;-69
2023/09/24 05:00:16;;;;;;;8.10;7.30;;;4.70;99.90;;;;;;5073914;28;20197;-69
2023/09/24 05:02:42;;;;;;;10.60;7.53;;;4.70;99.90;;;;;;5073624;28;20256;-69
2023/09/24 05:05:09;;;;;;;8.90;7.10;;;4.70;99.90;;;;;;5073968;28;20193;-69
2023/09/24 05:07:37;;;;;;;13.23;7.30;;;4.70;99.90;;;;;;5074120;28;20197;-69
2023/09/24 05:10:05;;;;;;;9.50;6.90;;;4.60;99.90;;;;;;5073837;28;20607;-69
2023/09/24 05:12:31;;;;;;;9.63;7.63;;;4.50;99.90;;;;;;5073496;28;20671;-69
2023/09/24 05:14:58;;;;;;;11.23;7.90;;;4.60;99.90;;;;;;5073591;28;20197;-69
2023/09/24 05:17:25;;;;;;;9.07;7.63;;;4.90;99.90;;;;;;5074033;28;20201;-69
2023/09/24 05:19:51;;;;;;;10.17;7.70;;;4.90;99.90;;;;;;5073816;28;20201;-69
2023/09/24 05:22:18;;;;;;;9.97;8.00;;;5.00;99.90;;;;;;5073519;28;20224;-69
2023/09/24 05:24:46;;;;;;;8.97;7.97;;;4.90;99.90;;;;;;5073327;28;20251;-69
2023/09/24 05:27:12;;;;;;;8.73;7.57;;;4.90;99.90;;;;;;5073302;28;20258;-69
2023/09/24 05:29:40;;;;;;;7.83;7.13;;;5.00;99.90;;;;;;5073268;28;20201;-69
2023/09/24 05:32:06;;;;;;;7.80;7.00;;;5.00;99.90;;;;;;5073394;28;20258;-69
2023/09/24 05:34:33;;;;;;;7.53;6.83;;;5.00;99.90;;;;;;5073399;28;20236;-69
2023/09/24 05:37:00;;;;;;;9.03;8.13;;;4.80;99.90;;;;;;5073196;28;20237;-68
2023/09/24 05:39:27;;;;;;;10.80;8.60;;;4.80;99.90;;;;;;5073284;28;20200;-68
2023/09/24 05:41:55;;;;;;;10.30;8.50;;;4.80;99.90;;;;;;5072974;28;20316;-68
2023/09/24 05:44:22;;;;;;;8.53;7.60;;;4.80;99.90;;;;;;5073256;28;20207;-68
2023/09/24 05:46:49;;;;;;;8.37;7.47;;;4.80;99.90;;;;;;5073271;28;20577;-68
2023/09/24 05:49:16;;;;;;;7.57;6.87;;;4.80;99.90;;;;;;5072949;28;20600;-68
2023/09/24 05:51:42;;;;;;;7.67;6.47;;;4.90;99.90;;;;;;5073152;28;20193;-68
2023/09/24 05:54:10;;;;;;;7.33;6.63;;;4.90;99.90;;;;;;5073020;28;20201;-68
2023/09/24 05:56:37;;;;;;;7.93;6.70;;;4.90;99.90;;;;;;5072896;28;20602;-67
2023/09/24 05:59:05;;;;;;;6.93;6.33;;;5.00;99.90;;;;;;5072829;28;20200;-68
2023/09/24 06:01:32;;;;;;;6.73;6.13;;;5.00;99.90;;;;;;5072732;28;20262;-68
2023/09/24 06:03:58;;;;;;;8.10;7.37;;;5.00;99.90;;;;;;5072870;28;20291;-68
2023/09/24 06:06:25;;;;;;;7.20;6.50;;;5.00;99.90;;;;;;5072929;28;20201;-68
2023/09/24 06:08:53;;;;;;;7.70;6.90;;;5.10;99.90;;;;;;5072837;28;20197;-68
2023/09/24 06:11:20;;;;;;;8.07;7.30;;;5.10;99.90;;;;;;5072625;28;20235;-68
2023/09/24 06:13:47;;;;;;;8.23;7.43;;;5.20;99.90;;;;;;5072977;28;20201;-68
2023/09/24 06:16:14;;;;;;;8.87;7.90;;;5.30;99.90;;;;;;5072689;28;20197;-68
2023/09/24 06:18:41;;;;;;;8.37;7.37;;;5.40;99.90;;;;;;5072802;28;20196;-69
2023/09/24 06:21:09;;;;;;;9.00;8.10;;;5.50;99.90;;;;;;5072633;28;20197;-67
2023/09/24 06:23:37;;;;;;;9.00;8.10;;;5.70;99.90;;;;;;5072619;28;20341;-69
2023/09/24 06:26:04;;;;;;;9.60;8.70;;;5.80;99.90;;;;;;5072847;28;20246;-69
2023/09/24 06:28:30;;;;;;;10.37;8.63;;;6.00;99.90;;;;;;5072965;28;20196;-69
2023/09/24 06:31:00;;;;;;;9.93;8.93;;;6.10;99.90;;;;;;5072744;28;20201;-69
2023/09/24 06:33:29;;;;;;;9.87;8.87;;;6.20;99.90;;;;;;5072730;28;20631;-69
2023/09/24 06:35:55;;;;;;;9.90;8.90;;;6.30;99.90;;;;;;5072261;28;20580;-71
2023/09/24 06:38:22;;;;;;;9.60;8.57;;;6.30;99.90;;;;;;5072534;28;20293;-70
2023/09/24 06:40:57;;;;;;;10.00;9.00;;;6.40;99.90;;;;;;5072478;28;20541;-70
2023/09/24 06:43:24;;;;;;;11.63;9.17;;;6.50;99.90;;;;;;5072599;28;20319;-70
2023/09/24 06:45:51;;;;;;;13.97;9.13;;;6.70;99.90;;;;;;5072472;28;20204;-70
2023/09/24 06:48:19;;;;;;;10.93;9.47;;;6.80;99.90;;;;;;5072652;28;20197;-81
2023/09/24 06:50:47;;;;;;;10.37;9.27;;;6.90;99.90;;;;;;5072655;28;20200;-70
2023/09/24 06:53:13;;;;;;;11.07;9.53;;;6.80;99.90;;;;;;5072358;28;20208;-69
2023/09/24 06:55:40;;;;;;;10.80;9.63;;;6.90;99.90;;;;;;5072481;28;20205;-71
2023/09/24 06:58:07;;;;;;;15.90;13.57;;;7.10;99.90;;;;;;5072465;28;20654;-70
2023/09/24 07:00:34;;;;;;;12.97;11.67;;;7.20;99.90;;;;;;5072246;28;20205;-70
2023/09/24 07:03:00;;;;;;;12.53;11.33;;;7.30;99.90;;;;;;5072226;28;20277;-70
2023/09/24 07:05:27;;;;;;;16.00;14.30;;;7.50;99.90;;;;;;5072315;28;20197;-70
2023/09/24 07:07:55;;;;;;;15.37;12.80;;;7.70;99.90;;;;;;5072714;28;20201;-68
2023/09/24 07:10:23;;;;;;;13.43;12.13;;;7.80;99.90;;;;;;5072483;28;20201;-68
2023/09/24 07:12:49;;;;;;;13.80;12.40;;;7.90;99.90;;;;;;5072817;28;20229;-69
2023/09/24 07:15:17;;;;;;;15.17;12.90;;;8.10;99.90;;;;;;5075979;28;20208;-68
2023/09/24 07:17:43;;;;;;;14.83;12.87;;;8.20;99.90;;;;;;5075994;28;20232;-69
2023/09/24 07:20:11;;;;;;;14.23;12.73;;;8.40;99.90;;;;;;5075887;28;20209;-68
2023/09/24 07:22:38;;;;;;;13.10;11.70;;;8.60;99.90;;;;;;5075836;28;20229;-69
2023/09/24 07:25:06;;;;;;;13.40;12.00;;;8.70;99.90;;;;;;5075684;28;20607;-69
2023/09/24 07:27:33;;;;;;;13.83;11.40;;;8.80;99.90;;;;;;5075895;28;20221;-69
2023/09/24 07:30:00;;;;;;;13.50;12.10;;;9.00;99.90;;;;;;5075607;28;20607;-68
2023/09/24 07:32:28;;;;;;;12.97;11.67;;;9.10;99.90;;;;;;5075376;28;20679;-68
2023/09/24 07:34:54;;;;;;;12.50;11.30;;;9.30;99.90;;;;;;5075310;28;20207;-68
2023/09/24 07:37:21;;;;;;;11.70;10.60;;;9.50;99.90;;;;;;5075273;28;20233;-68
2023/09/24 07:39:49;;;;;;;11.53;10.43;;;9.70;99.90;;;;;;5075428;28;20201;-68
2023/09/24 07:42:17;;;;;;;10.87;9.87;;;9.90;99.90;;;;;;5075176;28;20219;-68
2023/09/24 07:44:44;;;;;;;12.40;10.03;;;10.00;99.90;;;;;;5075279;28;20200;-68
2023/09/24 07:47:10;;;;;;;12.03;9.23;;;10.30;99.90;;;;;;5075166;28;20250;-68
2023/09/24 07:49:37;;;;;;;8.47;7.77;;;10.50;99.90;;;;;;5075361;28;20648;-68
2023/09/24 07:52:04;;;;;;;10.90;8.60;;;10.70;99.90;;;;;;5075408;28;20263;-69
2023/09/24 07:54:31;;;;;;;8.30;7.40;;;10.80;99.90;;;;;;5075071;28;20525;-68
2023/09/24 07:56:58;;;;;;;7.77;6.97;;;11.10;99.90;;;;;;5075159;28;20204;-68
2023/09/24 07:59:25;;;;;;;9.80;6.47;;;11.20;99.90;;;;;;5075095;28;20231;-69
2023/09/24 08:01:52;;;;;;;6.60;5.90;;;11.40;99.90;;;;;;5074851;28;20204;-69
2023/09/24 08:04:19;;;;;;;8.37;5.63;;;11.60;99.90;;;;;;5074835;28;20632;-69
2023/09/24 08:06:46;;;;;;;5.57;4.93;;;11.80;99.90;;;;;;5074990;28;20201;-69
2023/09/24 08:09:13;;;;;;;6.43;4.50;;;11.90;99.90;;;;;;5075338;28;20199;-70
2023/09/24 08:11:39;;;;;;;8.63;4.43;;;12.10;99.90;;;;;;5074894;28;20299;-70
2023/09/24 08:14:06;;;;;;;6.23;4.80;;;12.40;99.90;;;;;;5074889;28;20226;-69
2023/09/24 08:16:34;;;;;;;6.83;4.57;;;12.70;99.90;;;;;;5074802;28;20250;-70
2023/09/24 08:19:00;;;;;;;4.87;4.47;;;12.80;99.90;;;;;;5075028;28;20405;-68
2023/09/24 08:21:27;;;;;;;5.57;4.80;;;13.10;99.90;;;;;;5074488;28;20193;-68
2023/09/24 08:23:54;;;;;;;5.73;4.20;;;13.40;99.90;;;;;;5074506;28;20221;-68
2023/09/24 08:26:20;;;;;;;4.80;3.97;;;13.60;99.90;;;;;;5073834;28;20231;-68
2023/09/24 08:28:47;;;;;;;6.10;4.10;;;14.00;99.90;;;;;;5074567;28;20201;-68
2023/09/24 08:31:14;;;;;;;6.43;4.53;;;14.20;99.90;;;;;;5074785;28;20269;-68
2023/09/24 08:33:42;;;;;;;6.33;3.53;;;14.50;99.90;;;;;;5074555;28;20631;-69
2023/09/24 08:36:11;;;;;;;4.40;3.50;;;14.70;99.90;;;;;;5074344;28;20250;-69
2023/09/24 08:38:37;;;;;;;3.93;3.20;;;15.00;99.90;;;;;;5074487;28;20224;-68
2023/09/24 08:41:11;;;;;;;5.70;3.38;;;15.30;99.90;;;;;;5074402;28;20205;-69
2023/09/24 08:43:39;;;;;;;5.28;3.67;;;15.50;99.90;;;;;;5074079;28;20692;-69
2023/09/24 08:46:07;;;;;;;7.75;3.30;;;15.50;99.90;;;;;;5074651;28;20201;-70
2023/09/24 08:48:35;;;;;;;3.75;3.33;;;15.40;99.90;;;;;;5074333;28;20274;-69
2023/09/24 08:51:04;;;;;;;3.97;3.15;;;15.60;99.90;;;;;;5074121;28;20205;-68
2023/09/24 08:53:31;;;;;;;5.43;3.28;;;15.90;99.90;;;;;;5074088;28;20212;-69
2023/09/24 08:55:58;;;;;;;4.13;3.30;;;16.00;99.90;;;;;;5073941;28;20327;-69
2023/09/24 08:58:25;;;;;;;4.30;2.70;;;16.10;99.90;;;;;;5074148;28;20197;-69
2023/09/24 09:00:52;;;;;;;3.33;2.63;;;16.40;99.90;;;;;;5073789;28;20595;-69
2023/09/24 09:03:19;;;;;;;5.93;2.40;;;16.70;99.90;;;;;;5073917;28;20236;-69
2023/09/24 09:05:46;;;;;;;3.50;2.28;;;17.20;99.90;;;;;;5073835;28;20297;-69
2023/09/24 09:08:14;;;;;;;2.70;2.00;;;17.40;99.90;;;;;;5073714;28;20208;-69
2023/09/24 09:10:41;;;;;;;2.95;2.00;;;17.70;99.90;;;;;;5073546;28;20209;-69
2023/09/24 09:13:09;;;;;;;3.95;2.30;;;17.50;99.90;;;;;;5073654;28;20205;-69
2023/09/24 09:15:37;;;;;;;4.13;2.30;;;17.80;99.90;;;;;;5073674;28;20390;-69
2023/09/24 09:18:05;;;;;;;2.75;2.08;;;18.00;99.90;;;;;;5073657;28;20197;-69
2023/09/24 09:20:42;;;;;;;2.97;2.03;;;18.40;99.90;;;;;;5073589;28;20618;-69
2023/09/24 09:23:12;;;;;;;3.15;2.17;;;18.60;99.90;;;;;;5073352;28;20227;-69
2023/09/24 09:25:52;;;;;;;2.65;2.03;;;18.20;99.90;;;;;;5073344;28;20721;-69
2023/09/24 09:28:23;;;;;;;2.97;1.92;;;18.00;99.90;;;;;;5073584;28;20192;-69
2023/09/24 09:31:04;;;;;;;3.50;1.95;;;18.20;99.90;;;;;;5073374;28;20284;-69
2023/09/24 09:33:34;;;;;;;3.05;2.00;;;18.00;99.90;;;;;;5073420;28;20236;-69
2023/09/24 09:36:01;;;;;;;2.72;2.10;;;18.00;99.90;;;;;;5073002;28;20254;-69
2023/09/24 09:38:28;;;;;;;4.00;1.80;;;18.70;99.90;;;;;;5073648;28;20205;-69
2023/09/24 09:40:58;;;;;;;4.50;2.10;;;19.10;99.80;;;;;;5073218;28;20560;-69
2023/09/24 09:43:27;;;;;;;3.22;1.90;;;19.60;99.10;;;;;;5073179;28;20229;-69
2023/09/24 09:45:55;;;;;;;3.08;2.05;;;20.40;98.20;;;;;;5073112;28;20200;-69
2023/09/24 09:48:33;;;;;;;3.63;2.10;;;20.90;96.00;;;;;;5073319;28;20193;-69
2023/09/24 09:51:07;;;;;;;2.55;1.90;;;21.30;95.80;;;;;;5073278;28;20201;-69
2023/09/24 09:53:35;;;;;;;5.00;2.20;;;21.60;94.80;;;;;;5073081;28;20197;-69
2023/09/24 09:56:04;;;;;;;3.20;2.17;;;21.70;94.20;;;;;;5072992;28;20201;-69
2023/09/24 09:58:32;;;;;;;2.08;1.83;;;21.70;92.70;;;;;;5072817;28;20246;-69
2023/09/24 10:01:00;;;;;;;3.10;2.13;;;21.70;91.90;;;;;;5073178;28;20200;-69
2023/09/24 10:03:28;;;;;;;2.42;2.05;;;21.70;92.00;;;;;;5073026;28;20231;-69
2023/09/24 10:05:57;;;;;;;3.33;2.17;;;22.40;91.30;;;;;;5073120;28;20560;-69
2023/09/24 10:08:44;;;;;;;2.30;1.92;;;22.40;88.30;;;;;;5072907;28;20201;-69
2023/09/24 10:11:13;;;;;;;3.72;1.83;;;23.20;87.10;;;;;;5072906;28;20196;-69
2023/09/24 10:13:44;;;;;;;2.90;1.73;;;23.80;85.50;;;;;;5072955;28;20197;-69
2023/09/24 10:16:38;;;;;;;2.38;1.75;;;24.10;82.50;;;;;;5073161;28;20675;-69
2023/09/24 10:19:07;;;;;;;3.85;2.28;;;24.50;81.90;;;;;;5037376;28;20208;-69
2023/09/24 10:21:36;;;;;;;2.88;1.90;;;24.60;78.60;;;;;;5072775;28;20556;-70
2023/09/24 10:24:46;;;;;;;2.72;1.88;;;25.10;76.70;;;;;;5072842;28;20228;-70
2023/09/24 10:27:15;;;;;;;2.58;1.63;;;25.00;74.60;;;;;;5072802;28;20193;-70
2023/09/24 10:30:02;;;;;;;3.10;1.83;;;24.90;73.50;;;;;;5072673;28;20196;-69
2023/09/24 10:32:29;;;;;;;2.17;1.80;;;25.40;71.70;;;;;;5072915;28;20279;-69
2023/09/24 10:35:10;;;;;;;3.00;1.98;;;25.30;68.00;;;;;;5072651;28;20208;-71
2023/09/24 10:37:55;;;;;;;2.88;2.05;;;26.00;66.90;;;;;;5072642;28;20285;-69
2023/09/24 10:40:24;;;;;;;2.40;1.80;;;26.50;65.70;;;;;;5072668;28;20693;-70
2023/09/24 10:43:12;;;;;;;4.15;2.53;;;27.00;63.30;;;;;;5072682;28;20280;-70
2023/09/24 10:45:38;;;;;;;3.58;2.67;;;26.80;61.50;;;;;;5072699;28;20246;-69
2023/09/24 10:48:05;;;;;;;3.65;1.70;;;26.80;61.80;;;;;;5073403;28;20226;-70
2023/09/24 10:50:32;;;;;;;3.00;2.20;;;25.80;58.60;;;;;;5076770;28;20291;-70
2023/09/24 10:53:00;;;;;;;2.83;1.70;;;25.60;60.30;;;;;;5076760;28;20199;-70
2023/09/24 10:55:34;;;;;;;2.25;1.77;;;26.10;60.40;;;;;;5076770;28;20196;-70
2023/09/24 10:58:02;;;;;;;2.28;1.80;;;27.00;58.80;;;;;;5076588;28;20279;-70
2023/09/24 11:00:32;;;;;;;2.30;1.88;;;26.50;58.00;;;;;;5076424;28;20201;-70
2023/09/24 11:03:01;;;;;;;2.03;1.83;;;27.20;55.30;;;;;;5076299;28;20273;-70
2023/09/24 11:05:30;;;;;;;2.38;1.70;;;28.00;56.20;;;;;;5076461;28;20199;-70
2023/09/24 11:07:57;;;;;;;2.40;1.67;;;28.70;52.00;;;;;;5076136;28;20598;-70
2023/09/24 11:10:25;;;;;;;2.65;1.90;;;29.70;51.90;;;;;;5076099;28;20727;-69
2023/09/24 11:12:53;;;;;;;2.88;1.67;;;29.60;49.80;;;;;;5076145;28;20197;-69
2023/09/24 11:15:22;;;;;;;2.17;1.58;;;29.80;48.90;;;;;;5076142;28;20200;-71
2023/09/24 11:17:51;;;;;;;1.75;1.40;;;29.50;45.20;;;;;;5075996;28;20246;-71
2023/09/24 11:20:20;;;;;;;2.75;1.45;;;30.00;45.70;;;;;;5076165;28;20283;-71
2023/09/24 11:22:56;;;;;;;1.80;1.27;;;30.50;42.70;;;;;;5076080;28;20196;-71
2023/09/24 11:25:23;;;;;;;4.70;2.03;;;30.20;44.30;;;;;;5075991;28;20210;-71
2023/09/24 11:27:51;;;;;;;1.70;1.50;;;30.30;42.30;;;;;;5075839;28;20196;-71
2023/09/24 11:30:19;;;;;;;2.13;1.52;;;29.00;42.50;;;;;;5075775;28;20310;-71
2023/09/24 11:32:47;;;;;;;2.60;1.95;;;29.40;44.40;;;;;;5075960;28;20196;-71
2023/09/24 11:35:17;;;;;;;4.07;1.50;;;29.50;43.20;;;;;;5075760;28;20232;-70
2023/09/24 11:37:50;;;;;;;4.00;1.48;;;29.50;42.20;;;;;;5075544;28;20224;-71
2023/09/24 11:40:28;;;;;;;3.17;1.50;;;29.90;42.80;;;;;;5075931;28;20246;-71
2023/09/24 11:42:59;;;;;;;2.15;1.63;;;30.60;41.50;;;;;;5075753;28;20201;-71
2023/09/24 11:45:46;;;;;;;1.88;1.42;;;30.60;40.10;;;;;;5075561;28;20739;-71
2023/09/24 11:48:14;;;;;;;1.65;1.40;;;30.80;39.50;;;;;;5075551;28;20208;-71
2023/09/24 11:50:43;;;;;;;1.77;1.40;;;31.40;39.30;;;;;;5075487;28;20193;-71
2023/09/24 11:53:10;;;;;;;1.38;1.27;;;32.10;36.60;;;;;;5075222;28;20292;-71
2023/09/24 11:55:36;;;;;;;2.20;1.60;;;32.20;36.80;;;;;;5075525;28;20192;-72
2023/09/24 11:58:05;;;;;;;2.15;1.95;;;32.00;36.60;;;;;;5075407;28;20279;-71
2023/09/24 12:00:32;;;;;;;1.80;1.50;;;31.70;36.10;;;;;;5075222;28;20203;-71
2023/09/24 12:02:59;;;;;;;2.28;1.80;;;31.80;35.80;;;;;;5075277;28;20233;-71
2023/09/24 12:05:26;;;;;;;1.60;1.40;;;31.90;36.50;;;;;;5075101;28;20196;-69
2023/09/24 12:07:55;;;;;;;1.90;1.50;;;32.70;34.70;;;;;;5075061;28;20204;-70
2023/09/24 12:10:22;;;;;;;1.95;1.48;;;32.70;33.60;;;;;;5075295;28;20231;-71
2023/09/24 12:12:49;;;;;;;2.10;1.90;;;32.40;34.90;;;;;;5075228;28;20197;-70
2023/09/24 12:15:17;;;;;;;1.95;1.60;;;32.70;34.40;;;;;;5075338;28;20307;-71
2023/09/24 12:17:45;;;;;;;1.40;1.30;;;33.90;33.60;;;;;;5074933;28;20196;-71
2023/09/24 12:20:12;;;;;;;2.30;1.65;;;34.00;32.30;;;;;;5075222;28;20250;-71
2023/09/24 12:22:41;;;;;;;1.77;1.30;;;33.60;31.60;;;;;;5075129;28;20804;-71
2023/09/24 12:25:10;;;;;;;1.60;1.38;;;33.60;30.80;;;;;;5074983;28;20204;-71
2023/09/24 12:27:37;;;;;;;1.20;1.10;;;32.10;32.80;;;;;;5074808;28;20250;-71
2023/09/24 12:30:05;;;;;;;1.73;1.15;;;32.80;31.60;;;;;;5074779;28;20220;-71
2023/09/24 12:32:32;;;;;;;2.08;1.40;;;33.60;32.10;;;;;;5074620;28;20209;-71
2023/09/24 12:34:59;;;;;;;1.50;1.40;;;34.40;30.80;;;;;;5074483;28;20224;-71
2023/09/24 12:37:25;;;;;;;1.73;1.27;;;33.30;31.40;;;;;;5074370;28;20228;-71
2023/09/24 12:39:52;;;;;;;1.65;1.25;;;32.30;31.10;;;;;;5074600;28;20212;-70
2023/09/24 12:42:20;;;;;;;2.83;1.42;;;32.10;31.90;;;;;;5074644;28;20219;-70
2023/09/24 12:44:47;;;;;;;2.05;1.65;;;33.10;32.20;;;;;;5074425;28;20193;-71
2023/09/24 12:47:14;;;;;;;2.42;1.40;;;33.60;30.80;;;;;;5074259;28;20583;-71
2023/09/24 12:49:41;;;;;;;2.50;1.50;;;33.00;29.80;;;;;;5074426;28;20265;-70
2023/09/24 12:52:09;;;;;;;1.95;1.40;;;30.50;31.80;;;;;;5074369;28;20224;-71
2023/09/24 12:54:35;;;;;;;2.15;1.60;;;28.90;32.40;;;;;;5074214;28;20228;-70
2023/09/24 12:57:02;;;;;;;2.67;1.65;;;28.90;35.70;;;;;;5074142;28;20192;-70